Time;durP1;ratioP1;P1;durP2;ratioP2;P2;SDS_P1;SDS_P2;PMS_P1;PMS_P2;Temp;Humidity;BMP_temperature;BMP_pressure;BME280_temperature;BME280_humidity;BME280_pressure;Samples;Min_cycle;Max_cycle;Signal;HPM_P1;HPM_P2
2023/05/23 00:00:57;;;;;;;16.90;13.70;;;16.00;99.90;;;;;;5113177;28;20183;-35
2023/05/23 00:03:27;;;;;;;16.40;14.03;;;16.00;99.90;;;;;;5103944;28;20288;-34
2023/05/23 00:05:55;;;;;;;16.67;14.23;;;16.00;99.90;;;;;;5092101;28;20184;-37
2023/05/23 00:08:21;;;;;;;15.23;13.53;;;15.90;99.90;;;;;;5117623;27;20171;-35
2023/05/23 00:10:47;;;;;;;15.73;12.80;;;15.80;99.90;;;;;;5100834;28;20199;-35
2023/05/23 00:13:13;;;;;;;14.97;10.93;;;15.80;99.90;;;;;;5098873;27;20211;-35
2023/05/23 00:15:43;;;;;;;17.23;12.43;;;15.70;99.90;;;;;;5084347;28;20215;-35
2023/05/23 00:18:12;;;;;;;14.43;12.07;;;15.70;99.90;;;;;;5092569;27;20194;-34
2023/05/23 00:20:41;;;;;;;13.20;11.80;;;15.60;99.90;;;;;;5102622;28;20187;-37
2023/05/23 00:23:17;;;;;;;14.10;12.70;;;15.60;99.90;;;;;;5099535;28;20198;-35
2023/05/23 00:25:47;;;;;;;12.80;11.50;;;15.60;99.90;;;;;;5101896;28;20179;-35
2023/05/23 00:28:13;;;;;;;17.40;14.33;;;15.60;99.90;;;;;;5115946;27;20187;-35
2023/05/23 00:30:39;;;;;;;17.73;13.40;;;15.50;99.90;;;;;;5090797;28;20204;-35
2023/05/23 00:33:05;;;;;;;16.80;12.87;;;15.50;99.90;;;;;;5095887;28;20199;-34
2023/05/23 00:35:31;;;;;;;14.37;12.83;;;15.60;99.90;;;;;;5102812;27;20234;-35
2023/05/23 00:37:57;;;;;;;15.30;12.50;;;15.60;99.90;;;;;;5100807;27;20187;-35
2023/05/23 00:40:23;;;;;;;13.17;11.83;;;15.60;99.90;;;;;;5108942;27;20176;-35
2023/05/23 00:42:49;;;;;;;12.90;11.60;;;15.60;99.90;;;;;;5132839;27;20206;-35
2023/05/23 00:45:18;;;;;;;14.30;11.80;;;15.70;99.90;;;;;;5107567;27;20183;-35
2023/05/23 00:47:47;;;;;;;12.07;10.87;;;15.70;99.90;;;;;;5113555;27;20195;-37
2023/05/23 00:50:14;;;;;;;12.90;11.60;;;15.70;99.90;;;;;;5134439;27;20206;-35
2023/05/23 00:52:43;;;;;;;12.80;11.07;;;15.80;99.90;;;;;;5091363;28;20233;-34
2023/05/23 00:55:09;;;;;;;16.83;12.57;;;15.80;99.90;;;;;;5123834;27;20356;-35
2023/05/23 00:57:40;;;;;;;14.73;12.20;;;15.80;99.90;;;;;;5117030;27;20191;-35
2023/05/23 01:00:14;;;;;;;13.97;12.53;;;15.70;99.90;;;;;;5102067;28;20183;-35
2023/05/23 01:02:44;;;;;;;15.90;12.57;;;15.70;99.90;;;;;;5095592;28;20278;-35
2023/05/23 01:05:13;;;;;;;13.80;12.37;;;15.70;99.90;;;;;;5096971;27;20183;-34
2023/05/23 01:07:40;;;;;;;13.67;11.93;;;15.70;99.90;;;;;;5114843;27;21518;-35
2023/05/23 01:10:07;;;;;;;13.67;12.27;;;15.70;99.90;;;;;;5096869;28;20195;-35
2023/05/23 01:12:57;;;;;;;14.50;12.30;;;15.80;99.90;;;;;;5107611;27;20178;-35
2023/05/23 01:15:59;;;;;;;14.33;12.73;;;15.80;99.90;;;;;;5120365;27;20188;-34
2023/05/23 01:19:03;;;;;;;16.23;11.40;;;15.80;99.90;;;;;;5087024;27;20275;-34
2023/05/23 01:21:30;;;;;;;12.93;11.33;;;15.80;99.90;;;;;;5064566;27;20194;-35
2023/05/23 01:24:20;;;;;;;13.80;12.13;;;15.70;99.90;;;;;;5092391;28;20514;-34
2023/05/23 01:26:55;;;;;;;14.87;12.47;;;15.70;99.90;;;;;;5098633;27;20200;-34
2023/05/23 01:29:25;;;;;;;14.70;12.30;;;15.70;99.90;;;;;;5095658;27;20257;-35
2023/05/23 01:31:57;;;;;;;17.03;12.07;;;15.60;99.90;;;;;;5100724;27;20241;-34
2023/05/23 01:34:23;;;;;;;13.93;11.43;;;15.70;99.90;;;;;;5079263;27;20191;-34
2023/05/23 01:36:53;;;;;;;13.03;11.53;;;15.70;99.90;;;;;;5098080;27;20180;-37
2023/05/23 01:39:19;;;;;;;13.77;12.17;;;15.70;99.90;;;;;;5112778;27;20164;-35
2023/05/23 01:41:45;;;;;;;13.43;11.67;;;15.70;99.90;;;;;;5116475;27;20186;-34
2023/05/23 01:44:11;;;;;;;16.87;12.07;;;15.70;99.90;;;;;;5100259;27;20337;-35
2023/05/23 01:46:38;;;;;;;15.97;13.10;;;15.70;99.90;;;;;;5123471;27;20171;-36
2023/05/23 01:49:06;;;;;;;15.03;12.33;;;15.80;99.90;;;;;;5094444;28;20752;-35
2023/05/23 01:51:33;;;;;;;12.93;11.63;;;15.70;99.90;;;;;;5099954;27;20207;-34
2023/05/23 01:53:59;;;;;;;14.03;12.07;;;15.80;99.90;;;;;;5089994;28;20271;-35
2023/05/23 01:56:27;;;;;;;17.70;12.37;;;15.80;99.90;;;;;;5105802;27;20184;-34
2023/05/23 01:58:54;;;;;;;15.20;12.20;;;15.80;99.90;;;;;;5092515;27;20252;-35
2023/05/23 02:01:20;;;;;;;18.27;13.20;;;15.80;99.90;;;;;;5114965;27;20179;-34
2023/05/23 02:03:47;;;;;;;14.97;12.50;;;15.90;99.90;;;;;;5114271;27;20272;-34
2023/05/23 02:06:13;;;;;;;14.47;12.63;;;15.90;99.90;;;;;;5080175;27;20199;-34
2023/05/23 02:08:38;;;;;;;14.83;13.33;;;15.90;99.90;;;;;;5107328;27;20184;-34
2023/05/23 02:11:04;;;;;;;14.40;12.90;;;15.90;99.90;;;;;;5113066;27;20282;-35
2023/05/23 02:13:30;;;;;;;15.43;12.67;;;15.90;99.90;;;;;;5094713;27;20218;-35
2023/05/23 02:15:56;;;;;;;15.30;13.70;;;15.80;99.90;;;;;;5101332;27;20214;-35
2023/05/23 02:18:25;;;;;;;16.00;13.13;;;15.90;99.90;;;;;;5091923;27;20191;-35
2023/05/23 02:20:51;;;;;;;16.03;13.50;;;15.90;99.90;;;;;;5092158;27;20194;-35
2023/05/23 02:23:17;;;;;;;15.10;13.00;;;15.90;99.90;;;;;;5088964;27;20199;-35
2023/05/23 02:25:43;;;;;;;15.38;13.45;;;16.00;99.90;;;;;;5106497;27;20195;-35
2023/05/23 02:28:10;;;;;;;15.70;13.37;;;15.90;99.90;;;;;;5097836;27;20187;-35
2023/05/23 02:30:36;;;;;;;17.13;13.53;;;15.90;99.90;;;;;;5114407;27;20284;-35
2023/05/23 02:33:06;;;;;;;16.23;14.47;;;16.00;99.90;;;;;;5114285;27;20195;-37
2023/05/23 02:35:33;;;;;;;18.83;14.70;;;15.90;99.90;;;;;;5113819;27;20171;-35
2023/05/23 02:37:59;;;;;;;15.33;13.53;;;16.00;99.90;;;;;;5083402;28;20247;-35
2023/05/23 02:40:25;;;;;;;15.00;13.40;;;16.00;99.90;;;;;;5092851;27;20186;-35
2023/05/23 02:42:51;;;;;;;14.47;12.40;;;15.90;99.90;;;;;;5116129;27;20207;-35
2023/05/23 02:45:17;;;;;;;16.27;13.17;;;15.90;99.90;;;;;;5101617;27;20245;-35
2023/05/23 02:47:43;;;;;;;16.17;12.90;;;15.90;99.90;;;;;;5125159;27;20282;-35
2023/05/23 02:50:09;;;;;;;14.77;13.10;;;15.90;99.90;;;;;;5094019;27;20289;-35
2023/05/23 02:52:36;;;;;;;15.07;13.07;;;15.90;99.90;;;;;;5128192;27;20168;-35
2023/05/23 02:55:02;;;;;;;14.63;13.00;;;15.80;99.90;;;;;;5093751;28;20244;-34
2023/05/23 02:57:31;;;;;;;15.40;13.53;;;15.80;99.90;;;;;;5096293;27;20171;-34
2023/05/23 02:59:58;;;;;;;14.23;12.73;;;15.80;99.90;;;;;;5089155;28;20196;-35
2023/05/23 03:02:25;;;;;;;16.07;14.00;;;15.80;99.90;;;;;;5111711;27;20195;-34
2023/05/23 03:04:51;;;;;;;16.70;13.33;;;15.80;99.90;;;;;;5091924;28;20213;-35
2023/05/23 03:07:17;;;;;;;15.97;13.00;;;15.80;99.90;;;;;;5106432;27;20190;-34
2023/05/23 03:09:43;;;;;;;17.00;13.67;;;15.80;99.90;;;;;;5107144;28;20183;-35
2023/05/23 03:12:09;;;;;;;15.43;13.77;;;15.90;99.90;;;;;;5093884;27;20180;-35
2023/05/23 03:14:35;;;;;;;17.20;13.20;;;15.80;99.90;;;;;;5099934;27;20205;-34
2023/05/23 03:17:02;;;;;;;16.47;13.20;;;15.80;99.90;;;;;;5094968;27;20248;-34
2023/05/23 03:19:28;;;;;;;15.60;13.90;;;15.90;99.90;;;;;;5092833;27;20199;-34
2023/05/23 03:21:54;;;;;;;17.00;14.37;;;15.90;99.90;;;;;;5099523;27;20218;-35
2023/05/23 03:24:20;;;;;;;17.97;14.37;;;15.90;99.90;;;;;;5090924;27;20205;-34
2023/05/23 03:26:46;;;;;;;16.97;14.67;;;15.90;99.90;;;;;;5101179;28;20256;-35
2023/05/23 03:29:11;;;;;;;17.83;14.93;;;15.90;99.90;;;;;;5123479;27;20179;-35
2023/05/23 03:31:37;;;;;;;16.43;14.63;;;15.90;99.90;;;;;;5097207;27;20271;-35
2023/05/23 03:34:07;;;;;;;17.50;15.63;;;15.90;99.90;;;;;;5113343;27;20285;-35
2023/05/23 03:36:33;;;;;;;18.47;15.57;;;15.90;99.90;;;;;;5119435;27;20172;-35
2023/05/23 03:38:59;;;;;;;17.97;14.83;;;15.90;99.90;;;;;;5099983;27;20182;-35
2023/05/23 03:41:25;;;;;;;15.60;14.00;;;15.90;99.90;;;;;;5095421;27;20180;-35
2023/05/23 03:43:52;;;;;;;16.97;14.67;;;16.00;99.90;;;;;;5101169;27;20202;-34
2023/05/23 03:46:19;;;;;;;16.47;14.40;;;16.00;99.90;;;;;;5115446;27;20183;-34
2023/05/23 03:48:45;;;;;;;16.77;14.97;;;16.00;99.90;;;;;;5104809;28;20257;-34
2023/05/23 03:51:14;;;;;;;17.80;13.90;;;15.90;99.90;;;;;;5110102;27;20194;-34
2023/05/23 03:53:41;;;;;;;16.77;14.97;;;16.00;99.90;;;;;;5095487;28;20223;-34
2023/05/23 03:56:07;;;;;;;17.43;15.20;;;16.00;99.90;;;;;;5103491;28;20179;-34
2023/05/23 03:58:34;;;;;;;17.63;15.83;;;16.00;99.90;;;;;;5116299;27;20172;-34
2023/05/23 04:01:06;;;;;;;18.00;16.03;;;16.00;99.90;;;;;;5098854;28;20179;-36
2023/05/23 04:03:32;;;;;;;16.67;14.90;;;16.00;99.90;;;;;;5102909;27;20698;-35
2023/05/23 04:06:01;;;;;;;15.67;13.97;;;16.00;99.90;;;;;;5092769;28;20171;-34
2023/05/23 04:08:28;;;;;;;17.37;15.50;;;15.90;99.90;;;;;;5102178;27;20176;-35
2023/05/23 04:10:54;;;;;;;16.97;15.10;;;15.90;99.90;;;;;;5099423;27;20206;-34
2023/05/23 04:13:23;;;;;;;16.40;14.70;;;15.90;99.90;;;;;;5119293;27;20238;-34
2023/05/23 04:15:51;;;;;;;17.35;15.40;;;15.80;99.90;;;;;;5112815;28;20228;-36
2023/05/23 04:18:18;;;;;;;16.90;15.10;;;15.80;99.90;;;;;;5102283;27;20176;-36
2023/05/23 04:20:44;;;;;;;18.30;15.50;;;15.90;99.90;;;;;;5112751;27;20190;-34
2023/05/23 04:23:10;;;;;;;17.10;15.30;;;15.90;99.90;;;;;;5085205;28;20214;-34
2023/05/23 04:25:38;;;;;;;19.73;16.87;;;15.90;99.90;;;;;;5113810;27;20212;-33
2023/05/23 04:28:19;;;;;;;19.70;17.27;;;15.90;99.90;;;;;;5103978;27;20189;-35
2023/05/23 04:30:48;;;;;;;21.92;16.77;;;16.00;99.90;;;;;;5117036;27;20210;-35
2023/05/23 04:33:16;;;;;;;19.17;16.20;;;16.00;99.90;;;;;;5098060;27;20525;-34
2023/05/23 04:35:42;;;;;;;19.47;16.87;;;16.00;99.90;;;;;;5123782;27;20171;-35
2023/05/23 04:38:09;;;;;;;17.97;16.07;;;16.00;99.90;;;;;;5112288;27;20187;-35
2023/05/23 04:40:35;;;;;;;20.07;16.23;;;16.00;99.90;;;;;;5108831;27;20654;-35
2023/05/23 04:43:15;;;;;;;18.25;16.27;;;16.10;99.90;;;;;;5100579;27;20207;-35
2023/05/23 04:45:53;;;;;;;20.70;16.70;;;16.10;99.90;;;;;;5112941;28;20171;-35
2023/05/23 04:48:49;;;;;;;19.88;16.65;;;16.10;99.90;;;;;;5110206;27;20230;-34
2023/05/23 04:51:15;;;;;;;20.37;16.40;;;16.20;99.90;;;;;;5104690;27;20202;-34
2023/05/23 04:53:51;;;;;;;22.27;16.98;;;16.20;99.90;;;;;;5108933;28;20195;-36
2023/05/23 04:56:19;;;;;;;23.13;16.43;;;16.20;99.90;;;;;;5109662;27;20182;-34
2023/05/23 04:58:48;;;;;;;21.30;17.37;;;16.20;99.90;;;;;;5101019;28;20176;-35
2023/05/23 05:01:14;;;;;;;22.40;18.30;;;16.20;99.90;;;;;;5109627;27;20183;-34
2023/05/23 05:03:40;;;;;;;20.20;17.98;;;16.20;99.90;;;;;;5109335;27;20202;-34
2023/05/23 05:06:06;;;;;;;21.03;18.57;;;16.20;99.90;;;;;;5101078;27;20179;-34
2023/05/23 05:08:32;;;;;;;21.15;17.75;;;16.20;99.90;;;;;;5096148;27;20179;-35
2023/05/23 05:10:59;;;;;;;20.95;16.92;;;16.20;99.90;;;;;;5114350;27;20260;-34
2023/05/23 05:13:24;;;;;;;21.23;16.90;;;16.20;99.90;;;;;;5096323;27;20260;-34
2023/05/23 05:15:53;;;;;;;19.17;16.90;;;16.10;99.90;;;;;;5095863;28;20330;-34
2023/05/23 05:18:20;;;;;;;19.75;17.08;;;16.20;99.90;;;;;;5111509;27;20178;-34
2023/05/23 05:20:46;;;;;;;25.47;19.87;;;16.10;99.90;;;;;;5103682;27;20207;-34
2023/05/23 05:23:13;;;;;;;45.50;30.17;;;16.10;99.90;;;;;;5106733;28;20286;-34
2023/05/23 05:25:40;;;;;;;42.73;30.53;;;16.10;99.90;;;;;;5116636;27;20207;-37
2023/05/23 05:28:06;;;;;;;52.50;34.03;;;16.10;99.90;;;;;;5117820;27;20206;-34
2023/05/23 05:30:37;;;;;;;59.67;39.37;;;16.10;99.90;;;;;;5109075;27;20203;-36
2023/05/23 05:33:06;;;;;;;55.87;38.20;;;16.10;99.90;;;;;;5120255;27;20191;-35
2023/05/23 05:35:37;;;;;;;61.57;42.00;;;16.20;99.90;;;;;;5103691;27;20175;-34
2023/05/23 05:38:03;;;;;;;59.70;41.80;;;16.20;99.90;;;;;;5092656;28;20237;-34
2023/05/23 05:40:33;;;;;;;58.93;39.93;;;16.20;99.90;;;;;;5102275;27;20179;-34
2023/05/23 05:42:59;;;;;;;52.90;38.40;;;16.30;99.90;;;;;;5100750;27;20194;-34
2023/05/23 05:45:25;;;;;;;61.67;41.73;;;16.30;99.90;;;;;;5098442;27;20176;-35
2023/05/23 05:47:53;;;;;;;60.07;41.00;;;16.30;99.90;;;;;;5119577;27;20179;-35
2023/05/23 05:50:20;;;;;;;55.87;39.47;;;16.40;99.90;;;;;;5115375;27;20730;-35
2023/05/23 05:52:46;;;;;;;63.00;45.90;;;16.40;99.90;;;;;;5123615;27;20189;-34
2023/05/23 05:55:12;;;;;;;61.58;44.42;;;16.40;99.90;;;;;;5100014;27;20180;-34
2023/05/23 05:57:43;;;;;;;66.07;48.27;;;16.40;99.90;;;;;;5100524;28;20186;-34
2023/05/23 06:00:13;;;;;;;59.53;45.72;;;16.50;99.90;;;;;;5116359;27;20179;-34
2023/05/23 06:02:50;;;;;;;62.95;47.00;;;16.50;99.90;;;;;;5115542;28;20210;-34
2023/05/23 06:05:26;;;;;;;66.95;47.95;;;16.60;99.90;;;;;;5110547;27;20182;-35
2023/05/23 06:07:52;;;;;;;60.80;44.97;;;16.60;99.90;;;;;;5104724;28;20187;-34
2023/05/23 06:10:18;;;;;;;68.70;49.28;;;16.70;99.90;;;;;;5095838;27;20199;-35
2023/05/23 06:12:44;;;;;;;63.30;47.00;;;16.70;99.90;;;;;;5127256;27;20187;-35
2023/05/23 06:15:13;;;;;;;67.03;48.00;;;16.70;99.90;;;;;;5125957;27;20201;-34
2023/05/23 06:17:41;;;;;;;65.80;51.17;;;16.70;99.90;;;;;;5127750;27;20234;-35
2023/05/23 06:20:08;;;;;;;61.45;46.85;;;16.70;99.90;;;;;;5097061;27;20186;-37
2023/05/23 06:22:37;;;;;;;62.70;49.30;;;16.70;99.90;;;;;;5113558;27;20184;-35
2023/05/23 06:25:05;;;;;;;59.93;48.17;;;16.70;99.90;;;;;;5115832;27;20175;-34
2023/05/23 06:27:31;;;;;;;57.78;46.58;;;16.80;99.90;;;;;;5119787;27;20184;-34
2023/05/23 06:29:57;;;;;;;63.20;48.15;;;16.80;99.90;;;;;;5107410;27;20183;-34
2023/05/23 06:32:23;;;;;;;68.03;50.60;;;16.80;99.90;;;;;;5117384;27;20171;-35
2023/05/23 06:34:50;;;;;;;59.70;47.78;;;16.80;99.90;;;;;;5115193;27;20295;-35
2023/05/23 06:37:16;;;;;;;56.15;44.08;;;16.80;99.90;;;;;;5117319;27;20266;-37
2023/05/23 06:39:42;;;;;;;66.35;48.83;;;16.90;99.90;;;;;;5116120;27;20179;-36
2023/05/23 06:42:08;;;;;;;58.17;45.30;;;17.00;99.90;;;;;;5118538;27;20178;-35
2023/05/23 06:44:50;;;;;;;58.50;46.33;;;17.00;99.90;;;;;;5117607;27;20281;-35
2023/05/23 06:47:18;;;;;;;58.50;45.42;;;17.10;99.90;;;;;;5100467;27;20186;-35
2023/05/23 06:49:44;;;;;;;56.95;45.75;;;17.20;99.90;;;;;;5116882;27;20182;-36
2023/05/23 06:52:12;;;;;;;57.35;46.20;;;17.30;99.90;;;;;;5104216;27;20179;-35
2023/05/23 06:54:38;;;;;;;55.67;44.88;;;17.30;99.90;;;;;;5100165;27;20206;-35
2023/05/23 06:57:05;;;;;;;56.88;46.05;;;17.30;99.90;;;;;;5115645;27;20171;-35
2023/05/23 06:59:31;;;;;;;61.13;45.92;;;17.40;99.90;;;;;;5113993;27;20206;-35
2023/05/23 07:01:57;;;;;;;59.00;44.78;;;17.30;99.90;;;;;;5138492;27;20183;-34
2023/05/23 07:04:23;;;;;;;53.25;43.03;;;17.30;99.90;;;;;;5125203;27;20260;-34
2023/05/23 07:06:51;;;;;;;53.15;43.10;;;17.40;99.90;;;;;;5127620;27;20192;-34
2023/05/23 07:09:17;;;;;;;51.70;41.75;;;17.40;99.90;;;;;;5106258;27;20182;-35
2023/05/23 07:11:43;;;;;;;52.45;42.58;;;17.50;99.90;;;;;;5111051;27;20206;-34
2023/05/23 07:14:09;;;;;;;52.10;40.13;;;17.40;99.90;;;;;;5108937;27;20673;-34
2023/05/23 07:16:39;;;;;;;48.08;38.80;;;17.40;99.90;;;;;;5111256;27;20196;-34
2023/05/23 07:19:07;;;;;;;51.95;41.92;;;17.40;99.90;;;;;;5125610;27;20170;-35
2023/05/23 07:21:37;;;;;;;49.95;40.20;;;17.40;99.90;;;;;;5108168;27;20176;-34
2023/05/23 07:24:05;;;;;;;49.35;39.72;;;17.40;99.90;;;;;;5143614;27;20191;-34
2023/05/23 07:26:31;;;;;;;51.42;39.78;;;17.40;99.90;;;;;;5126388;27;20179;-34
2023/05/23 07:28:58;;;;;;;54.17;43.10;;;17.40;99.90;;;;;;5126791;27;20217;-35
2023/05/23 07:31:25;;;;;;;51.95;41.80;;;17.40;99.90;;;;;;5108868;27;20213;-35
2023/05/23 07:33:53;;;;;;;49.78;39.35;;;17.30;99.90;;;;;;5126466;27;20224;-34
2023/05/23 07:36:26;;;;;;;49.83;38.88;;;17.30;99.90;;;;;;5107877;27;20174;-35
2023/05/23 07:38:52;;;;;;;51.13;40.67;;;17.30;99.90;;;;;;5127168;27;20178;-36
2023/05/23 07:41:18;;;;;;;48.58;38.97;;;17.30;99.90;;;;;;5127302;27;20171;-34
2023/05/23 07:43:44;;;;;;;52.33;40.83;;;17.30;99.90;;;;;;5108552;27;20202;-36
2023/05/23 07:46:10;;;;;;;48.70;38.85;;;17.30;99.90;;;;;;5107295;27;20181;-36
2023/05/23 07:48:37;;;;;;;48.80;38.28;;;17.40;99.90;;;;;;5106482;27;20172;-35
2023/05/23 07:51:03;;;;;;;47.13;40.10;;;17.40;99.90;;;;;;5124865;27;20205;-35
2023/05/23 07:53:29;;;;;;;46.88;38.78;;;17.40;99.90;;;;;;5108667;27;20202;-34
2023/05/23 07:55:56;;;;;;;47.28;38.25;;;17.40;99.90;;;;;;5109970;27;20179;-35
2023/05/23 07:58:25;;;;;;;49.53;39.33;;;17.30;99.90;;;;;;5124380;27;20242;-35
2023/05/23 08:00:51;;;;;;;45.40;37.97;;;17.40;99.90;;;;;;5127721;27;20186;-34
2023/05/23 08:03:37;;;;;;;41.30;35.78;;;17.40;99.90;;;;;;5139113;27;20204;-34
2023/05/23 08:06:09;;;;;;;39.70;34.85;;;17.30;99.90;;;;;;5125160;27;20182;-34
2023/05/23 08:08:35;;;;;;;38.67;34.25;;;17.20;99.90;;;;;;5106840;27;20197;-34
2023/05/23 08:11:01;;;;;;;38.67;34.10;;;17.10;99.90;;;;;;5123786;27;20213;-34
2023/05/23 08:13:36;;;;;;;42.88;36.33;;;17.00;99.90;;;;;;5103837;27;20215;-33
2023/05/23 08:16:20;;;;;;;46.28;36.40;;;17.00;99.90;;;;;;5145414;27;20200;-34
2023/05/23 08:18:46;;;;;;;40.30;35.80;;;17.00;99.90;;;;;;5128169;27;20194;-34
2023/05/23 08:21:12;;;;;;;42.55;37.60;;;17.00;99.90;;;;;;5110040;27;20198;-35
2023/05/23 08:23:38;;;;;;;43.33;35.65;;;17.10;99.90;;;;;;5124366;27;20697;-35
2023/05/23 08:26:04;;;;;;;40.40;35.97;;;17.20;99.90;;;;;;5111721;27;20175;-34
2023/05/23 08:28:33;;;;;;;42.75;37.70;;;17.30;99.90;;;;;;5110689;27;20201;-34
2023/05/23 08:31:02;;;;;;;46.72;40.03;;;17.40;99.90;;;;;;5119715;27;20194;-33
2023/05/23 08:33:29;;;;;;;43.67;37.05;;;17.20;99.90;;;;;;5103089;27;20265;-34
2023/05/23 08:35:57;;;;;;;42.35;37.33;;;17.20;99.90;;;;;;5115476;27;20217;-34
2023/05/23 08:38:23;;;;;;;40.67;36.38;;;17.20;99.90;;;;;;5114861;27;20183;-34
2023/05/23 08:41:03;;;;;;;42.15;35.97;;;17.20;99.90;;;;;;5106163;27;20178;-34
2023/05/23 08:43:30;;;;;;;37.60;33.50;;;17.20;99.90;;;;;;5107881;27;20207;-34
2023/05/23 08:45:56;;;;;;;39.55;34.55;;;17.20;99.90;;;;;;5106480;27;20191;-34
2023/05/23 08:48:26;;;;;;;37.33;33.35;;;17.10;99.90;;;;;;5121103;27;20183;-33
2023/05/23 08:50:52;;;;;;;37.13;32.40;;;17.10;99.90;;;;;;5116174;27;20203;-35
2023/05/23 08:53:24;;;;;;;33.53;30.00;;;17.10;99.90;;;;;;5102743;27;20232;-33
2023/05/23 08:56:02;;;;;;;33.72;28.50;;;17.10;99.90;;;;;;5107746;27;20180;-34
2023/05/23 08:58:37;;;;;;;29.65;26.48;;;17.20;99.90;;;;;;5124153;27;20242;-35
2023/05/23 09:01:04;;;;;;;27.77;24.08;;;17.10;99.90;;;;;;5127013;27;20204;-35
2023/05/23 09:03:32;;;;;;;29.38;24.48;;;17.30;99.90;;;;;;5126827;27;20199;-34
2023/05/23 09:06:20;;;;;;;25.05;22.35;;;17.30;99.90;;;;;;5143414;27;20226;-34
2023/05/23 09:08:47;;;;;;;24.55;22.05;;;17.30;99.90;;;;;;5110030;27;20258;-35
2023/05/23 09:11:14;;;;;;;23.30;20.90;;;17.40;99.90;;;;;;5126224;27;20202;-34
2023/05/23 09:13:43;;;;;;;22.10;19.90;;;17.30;99.90;;;;;;5125929;27;20206;-35
2023/05/23 09:16:19;;;;;;;20.50;18.30;;;17.40;99.90;;;;;;5125543;27;20171;-35
2023/05/23 09:18:49;;;;;;;20.95;18.75;;;17.60;99.90;;;;;;5125739;27;20179;-35
2023/05/23 09:21:17;;;;;;;21.58;19.27;;;17.60;99.90;;;;;;5125357;27;20649;-36
2023/05/23 09:23:53;;;;;;;21.98;19.77;;;17.60;99.90;;;;;;5122837;27;20202;-34
2023/05/23 09:26:19;;;;;;;21.27;18.98;;;17.50;99.90;;;;;;5123624;27;20183;-35
2023/05/23 09:28:45;;;;;;;20.50;18.48;;;17.40;99.90;;;;;;5121818;27;20267;-34
2023/05/23 09:31:12;;;;;;;21.20;18.13;;;17.40;99.90;;;;;;5122418;27;20195;-35
2023/05/23 09:33:49;;;;;;;20.95;18.80;;;17.50;99.90;;;;;;5105490;27;20222;-35
2023/05/23 09:36:18;;;;;;;20.20;16.83;;;17.50;99.90;;;;;;5104452;27;20176;-35
2023/05/23 09:38:47;;;;;;;18.63;16.63;;;17.60;99.90;;;;;;5119410;27;20196;-34
2023/05/23 09:41:13;;;;;;;19.65;17.65;;;17.70;99.90;;;;;;5121555;27;20191;-34
2023/05/23 09:43:50;;;;;;;17.83;15.90;;;17.80;99.90;;;;;;5122294;27;20198;-34
2023/05/23 09:46:17;;;;;;;18.10;16.35;;;17.80;99.90;;;;;;5105473;27;20562;-35
2023/05/23 09:48:51;;;;;;;19.77;17.40;;;17.90;99.90;;;;;;5120940;27;20182;-35
2023/05/23 09:51:21;;;;;;;19.63;17.58;;;17.80;99.90;;;;;;5109155;27;20209;-34
2023/05/23 09:53:47;;;;;;;19.30;17.30;;;17.70;99.90;;;;;;5124936;27;20225;-35
2023/05/23 09:56:15;;;;;;;20.00;17.90;;;17.80;99.90;;;;;;5128527;27;20179;-34
2023/05/23 09:58:45;;;;;;;17.17;15.38;;;17.80;99.90;;;;;;5146976;27;20239;-34
2023/05/23 10:01:13;;;;;;;19.42;17.25;;;18.00;99.90;;;;;;5147347;27;20203;-34
2023/05/23 10:03:49;;;;;;;19.10;16.55;;;18.00;99.90;;;;;;5135734;27;20222;-36
2023/05/23 10:06:25;;;;;;;19.10;17.10;;;17.90;99.90;;;;;;5099202;27;20187;-34
2023/05/23 10:09:05;;;;;;;17.88;15.98;;;18.00;99.90;;;;;;5115092;27;20193;-35
2023/05/23 10:11:34;;;;;;;20.15;17.27;;;18.00;99.90;;;;;;5113442;27;20203;-34
2023/05/23 10:14:03;;;;;;;16.77;15.07;;;18.10;99.90;;;;;;5131407;27;20211;-35
2023/05/23 10:16:35;;;;;;;17.17;15.38;;;18.20;99.90;;;;;;5104086;27;20229;-36
2023/05/23 10:19:09;;;;;;;19.38;17.38;;;18.30;99.90;;;;;;5125804;27;20212;-34
2023/05/23 10:21:43;;;;;;;19.38;16.65;;;18.50;99.90;;;;;;5123584;27;20167;-35
2023/05/23 10:24:12;;;;;;;19.10;16.63;;;18.50;99.90;;;;;;5124731;27;20216;-40
2023/05/23 10:26:39;;;;;;;18.60;16.60;;;18.60;99.90;;;;;;5108450;27;20181;-35
2023/05/23 10:29:06;;;;;;;17.70;15.82;;;18.50;99.90;;;;;;5115379;27;20191;-37
2023/05/23 10:31:32;;;;;;;16.70;14.90;;;18.60;99.90;;;;;;5110913;27;20219;-35
2023/05/23 10:34:10;;;;;;;16.75;15.13;;;18.60;99.90;;;;;;5111809;27;20219;-35
2023/05/23 10:36:56;;;;;;;17.35;15.55;;;18.60;99.90;;;;;;5099891;27;20270;-36
2023/05/23 10:39:43;;;;;;;15.68;14.07;;;18.70;99.90;;;;;;5096183;27;20241;-35
2023/05/23 10:42:32;;;;;;;16.92;15.13;;;18.80;99.90;;;;;;5123231;27;20184;-35
2023/05/23 10:45:17;;;;;;;16.08;14.25;;;18.80;99.90;;;;;;5117148;27;20183;-35
2023/05/23 10:47:43;;;;;;;16.88;15.15;;;18.70;99.90;;;;;;5133543;27;20216;-35
2023/05/23 10:50:30;;;;;;;15.90;14.30;;;18.80;99.90;;;;;;5102301;28;20195;-38
2023/05/23 10:52:56;;;;;;;16.42;14.45;;;18.90;99.90;;;;;;5116291;27;20199;-35
2023/05/23 10:55:22;;;;;;;13.85;12.55;;;19.00;99.90;;;;;;5135240;27;20171;-35
2023/05/23 10:58:28;;;;;;;14.23;12.43;;;19.20;99.90;;;;;;5109782;27;20203;-36
2023/05/23 11:00:55;;;;;;;13.73;12.43;;;19.60;99.90;;;;;;5106909;27;20653;-36
2023/05/23 11:03:34;;;;;;;14.02;12.73;;;19.90;99.90;;;;;;5126676;27;20194;-37
2023/05/23 11:06:02;;;;;;;15.02;12.30;;;20.20;99.90;;;;;;5126528;27;20235;-35
2023/05/23 11:08:37;;;;;;;12.70;11.48;;;20.20;99.90;;;;;;5117751;27;20187;-35
2023/05/23 11:11:04;;;;;;;14.05;12.73;;;20.30;99.90;;;;;;5136980;27;20212;-35
2023/05/23 11:13:51;;;;;;;13.60;12.20;;;20.10;99.90;;;;;;5099337;27;20213;-36
2023/05/23 11:16:41;;;;;;;13.20;11.80;;;19.80;99.90;;;;;;5100485;27;20189;-35
2023/05/23 11:19:17;;;;;;;12.98;11.63;;;19.70;99.90;;;;;;5109842;27;20183;-35
2023/05/23 11:21:49;;;;;;;12.73;11.57;;;19.80;99.90;;;;;;5117889;27;20182;-35
2023/05/23 11:24:16;;;;;;;13.48;12.10;;;19.80;99.90;;;;;;5142402;27;20211;-37
2023/05/23 11:27:02;;;;;;;13.27;11.98;;;20.00;99.90;;;;;;5142437;27;20180;-35
2023/05/23 11:29:29;;;;;;;13.88;12.02;;;20.30;99.90;;;;;;5099358;27;20190;-35
2023/05/23 11:31:56;;;;;;;11.75;10.63;;;20.60;99.90;;;;;;5104522;27;20210;-35
2023/05/23 11:34:24;;;;;;;12.70;11.25;;;20.90;99.90;;;;;;5138087;27;20195;-35
2023/05/23 11:36:55;;;;;;;13.02;11.40;;;20.70;99.90;;;;;;5107659;27;20179;-36
2023/05/23 11:39:23;;;;;;;11.50;10.30;;;20.80;99.90;;;;;;5104901;27;20171;-34
2023/05/23 11:42:11;;;;;;;12.93;11.68;;;20.80;99.90;;;;;;5103109;28;20180;-34
2023/05/23 11:44:40;;;;;;;11.55;10.35;;;20.90;99.90;;;;;;5112899;27;20195;-36
2023/05/23 11:47:07;;;;;;;11.82;10.63;;;21.20;99.90;;;;;;5115013;27;20262;-35
2023/05/23 11:49:37;;;;;;;12.10;10.75;;;21.50;99.90;;;;;;5117876;27;20175;-36
2023/05/23 11:52:07;;;;;;;10.95;9.95;;;21.80;99.90;;;;;;5104829;28;20229;-35
2023/05/23 11:54:33;;;;;;;12.40;11.07;;;22.20;99.90;;;;;;5105981;27;20187;-35
2023/05/23 11:57:00;;;;;;;11.48;10.27;;;22.20;99.90;;;;;;5096353;28;20267;-36
2023/05/23 11:59:27;;;;;;;11.70;10.50;;;22.20;99.90;;;;;;5126286;27;20187;-37
2023/05/23 12:01:54;;;;;;;9.80;8.90;;;22.40;99.90;;;;;;5104002;28;20203;-36
2023/05/23 12:04:20;;;;;;;11.18;10.07;;;22.60;99.90;;;;;;5102305;27;20199;-36
2023/05/23 12:06:47;;;;;;;11.18;10.00;;;22.30;99.90;;;;;;5086463;28;20220;-35
2023/05/23 12:09:19;;;;;;;10.75;9.65;;;22.00;99.90;;;;;;5123359;27;20426;-35
2023/05/23 12:11:48;;;;;;;10.50;9.60;;;21.50;99.90;;;;;;5099791;28;20215;-36
2023/05/23 12:14:16;;;;;;;12.45;11.20;;;21.50;99.90;;;;;;5121308;27;20265;-36
2023/05/23 12:16:46;;;;;;;12.40;11.20;;;20.90;99.90;;;;;;5129617;27;20175;-36
2023/05/23 12:19:13;;;;;;;12.48;11.23;;;20.80;99.90;;;;;;5102411;28;20267;-36
2023/05/23 12:21:42;;;;;;;12.13;10.93;;;20.80;99.90;;;;;;5082410;27;20175;-36
2023/05/23 12:24:27;;;;;;;11.85;10.75;;;20.90;99.90;;;;;;5105906;28;20227;-35
2023/05/23 12:27:04;;;;;;;11.15;10.05;;;20.90;99.90;;;;;;5126928;27;20195;-34
2023/05/23 12:29:35;;;;;;;11.25;9.95;;;21.10;99.90;;;;;;5102662;27;20180;-34
2023/05/23 12:32:04;;;;;;;11.60;10.40;;;21.00;99.90;;;;;;5100720;27;20207;-34
2023/05/23 12:34:30;;;;;;;10.73;9.60;;;20.90;99.90;;;;;;5100249;27;20194;-36
2023/05/23 12:36:57;;;;;;;10.73;9.35;;;20.70;99.90;;;;;;5102949;27;20182;-35
2023/05/23 12:39:28;;;;;;;9.70;8.80;;;20.80;99.90;;;;;;5133155;27;20175;-37